Time;durP1;ratioP1;P1;durP2;ratioP2;P2;SDS_P1;SDS_P2;PMS_P1;PMS_P2;Temp;Humidity;BMP_temperature;BMP_pressure;BME280_temperature;BME280_humidity;BME280_pressure;Samples;Min_cycle;Max_cycle;Signal;HPM_P1;HPM_P2
2022/04/25 00:01:16;;;;;;;0.47;0.47;;;;;;;24.90;13.29;100208.28;5034362;28;20128;-80
2022/04/25 00:03:41;;;;;;;0.40;0.40;;;;;;;24.91;13.36;100209.09;5023560;28;20538;-80
2022/04/25 00:06:07;;;;;;;0.30;0.30;;;;;;;24.91;13.45;100201.72;5014882;28;20030;-80
2022/04/25 00:08:32;;;;;;;0.50;0.50;;;;;;;24.91;13.43;100195.44;5014920;28;20397;-80
2022/04/25 00:10:58;;;;;;;0.50;0.50;;;;;;;24.91;13.19;100190.78;5013664;28;20030;-80
2022/04/25 00:13:23;;;;;;;0.50;0.50;;;;;;;24.89;13.35;100193.00;5015079;28;20029;-80
2022/04/25 00:15:49;;;;;;;0.30;0.30;;;;;;;24.89;13.59;100193.00;5014896;28;20469;-80
2022/04/25 00:18:14;;;;;;;0.40;0.40;;;;;;;24.90;13.32;100191.88;5014748;28;20034;-80
2022/04/25 00:20:39;;;;;;;0.40;0.40;;;;;;;24.92;13.62;100189.69;5014813;28;20025;-80
2022/04/25 00:23:05;;;;;;;0.40;0.40;;;;;;;24.90;13.43;100182.88;5014489;28;20357;-80
2022/04/25 00:25:34;;;;;;;0.63;0.40;;;;;;;24.85;13.33;100188.38;5014693;28;20045;-80
2022/04/25 00:28:01;;;;;;;0.40;0.40;;;;;;;24.89;13.25;100193.00;5014482;28;20026;-79
2022/04/25 00:30:28;;;;;;;0.50;0.45;;;;;;;24.86;13.17;100177.16;5013327;28;20318;-80
2022/04/25 00:32:54;;;;;;;0.32;0.32;;;;;;;24.85;13.34;100170.09;5014357;28;20029;-79
2022/04/25 00:35:20;;;;;;;0.38;0.38;;;;;;;24.83;13.29;100172.25;5014261;28;20025;-80
2022/04/25 00:37:45;;;;;;;0.55;0.43;;;;;;;24.87;13.31;100164.31;5014437;28;20025;-80
2022/04/25 00:40:11;;;;;;;0.50;0.50;;;;;;;24.86;13.28;100162.69;5014412;28;20025;-80
2022/04/25 00:42:36;;;;;;;0.60;0.40;;;;;;;24.89;13.29;100165.66;5013178;28;20026;-80
2022/04/25 00:45:02;;;;;;;0.40;0.40;;;;;;;24.87;13.65;100165.13;5014021;28;20477;-80
2022/04/25 00:47:28;;;;;;;0.30;0.30;;;;;;;24.89;13.46;100165.66;5014119;28;20029;-80
2022/04/25 00:49:53;;;;;;;0.50;0.50;;;;;;;24.87;13.53;100158.84;4997553;28;20042;-79
2022/04/25 00:52:20;;;;;;;0.47;0.47;;;;;;;24.85;13.48;100153.69;5014120;28;20076;-80
2022/04/25 00:54:45;;;;;;;0.50;0.50;;;;;;;24.87;13.40;100150.63;5014227;28;20041;-80
2022/04/25 00:57:10;;;;;;;0.38;0.38;;;;;;;24.87;13.49;100151.47;5014139;28;20041;-80
2022/04/25 00:59:36;;;;;;;0.52;0.50;;;;;;;24.89;13.41;100160.19;4996598;28;20452;-80
2022/04/25 01:02:01;;;;;;;0.50;0.50;;;;;;;24.87;13.49;100156.94;4996467;28;20465;-80
2022/04/25 01:04:27;;;;;;;1.05;0.50;;;;;;;24.86;13.35;100149.81;5030686;28;20032;-80
2022/04/25 01:06:52;;;;;;;0.30;0.30;;;;;;;24.83;13.63;100152.31;5049067;28;20045;-80
2022/04/25 01:09:18;;;;;;;0.40;0.40;;;;;;;24.84;13.61;100149.31;5033715;28;20026;-80
2022/04/25 01:11:44;;;;;;;0.40;0.40;;;;;;;24.81;13.58;100147.16;5033654;28;20038;-80
2022/04/25 01:14:17;;;;;;;0.30;0.30;;;;;;;24.85;13.28;100147.38;5048968;28;20121;-80
2022/04/25 01:16:42;;;;;;;0.40;0.40;;;;;;;24.85;13.42;100142.75;5033588;28;20075;-80
2022/04/25 01:19:08;;;;;;;0.32;0.32;;;;;;;24.86;13.28;100144.38;5033269;28;20025;-80
2022/04/25 01:21:37;;;;;;;0.30;0.30;;;;;;;24.83;13.41;100139.47;5033552;28;20033;-80
2022/04/25 01:29:34;;;;;;;0.40;0.40;;;;;;;24.87;13.27;100131.50;5033818;28;20503;-80
2022/04/25 01:31:59;;;;;;;0.43;0.43;;;;;;;24.85;13.57;100129.09;5032835;28;20030;-80
2022/04/25 01:34:25;;;;;;;0.47;0.47;;;;;;;24.86;13.43;100122.50;5033409;28;20032;-80
2022/04/25 01:36:50;;;;;;;0.40;0.40;;;;;;;24.84;13.50;100124.72;5033569;28;20457;-80
2022/04/25 01:39:16;;;;;;;0.30;0.30;;;;;;;24.86;13.47;100127.97;5034101;28;20203;-80
2022/04/25 01:41:44;;;;;;;0.40;0.40;;;;;;;24.88;13.32;100125.75;5033431;28;20460;-80
2022/04/25 01:44:10;;;;;;;0.40;0.40;;;;;;;24.85;13.35;100117.31;5032966;28;20056;-80
2022/04/25 01:46:38;;;;;;;0.35;0.35;;;;;;;24.86;13.26;100121.69;5033497;28;20127;-80
2022/04/25 01:49:04;;;;;;;0.40;0.40;;;;;;;24.83;13.28;100106.69;5036347;28;20099;-80
2022/04/25 01:51:29;;;;;;;0.50;0.50;;;;;;;24.84;13.47;100107.50;5036812;28;20469;-80
2022/04/25 01:53:54;;;;;;;0.40;0.40;;;;;;;24.84;13.47;100102.03;5035998;28;20033;-80
2022/04/25 01:56:20;;;;;;;0.45;0.45;;;;;;;24.86;13.54;100105.28;5037217;28;20025;-80
2022/04/25 01:58:45;;;;;;;0.30;0.30;;;;;;;24.87;13.52;100106.91;5036718;28;20058;-80
2022/04/25 02:01:12;;;;;;;0.40;0.40;;;;;;;24.83;13.53;100106.69;5035628;28;20097;-80
2022/04/25 02:03:37;;;;;;;0.35;0.35;;;;;;;24.83;13.54;100103.94;5028021;28;20072;-80
2022/04/25 02:06:03;;;;;;;0.38;0.38;;;;;;;24.83;13.23;100100.41;5017276;28;20026;-80
2022/04/25 02:08:28;;;;;;;1.05;0.60;;;;;;;24.80;13.33;100096.34;5017156;28;20464;-80
2022/04/25 02:13:37;;;;;;;0.40;0.40;;;;;;;24.82;13.33;100085.09;5017344;28;20080;-80
2022/04/25 02:16:03;;;;;;;0.55;0.40;;;;;;;24.82;13.48;100087.81;5017159;28;20021;-80
2022/04/25 02:18:29;;;;;;;0.50;0.40;;;;;;;24.82;13.23;100088.66;5016670;28;20464;-80
2022/04/25 02:20:54;;;;;;;0.30;0.30;;;;;;;24.81;13.30;100081.56;5016614;28;20033;-80
2022/04/25 02:23:20;;;;;;;0.40;0.40;;;;;;;24.83;13.44;100078.53;5016867;28;20040;-80
2022/04/25 02:25:45;;;;;;;0.40;0.40;;;;;;;24.83;13.55;100075.81;5017096;28;20431;-80
2022/04/25 02:28:11;;;;;;;0.40;0.40;;;;;;;24.77;13.60;100069.59;5016903;28;20030;-80
2022/04/25 02:30:36;;;;;;;0.30;0.30;;;;;;;24.83;13.25;100073.88;5016462;28;20022;-80
2022/04/25 02:33:02;;;;;;;0.40;0.40;;;;;;;24.80;13.42;100069.00;5016304;28;20068;-80
2022/04/25 02:35:27;;;;;;;0.47;0.47;;;;;;;24.80;13.38;100071.75;5016593;28;20030;-80
2022/04/25 02:37:52;;;;;;;0.20;0.20;;;;;;;24.84;13.40;100069.25;5016347;28;20498;-80
2022/04/25 02:40:18;;;;;;;0.40;0.40;;;;;;;24.84;13.40;100070.06;5016294;28;20040;-80
2022/04/25 02:42:43;;;;;;;0.30;0.30;;;;;;;24.82;13.50;100064.06;5016515;28;20033;-80
2022/04/25 02:45:11;;;;;;;0.30;0.30;;;;;;;24.82;13.31;100065.97;5016007;28;20123;-80
2022/04/25 02:47:36;;;;;;;0.30;0.30;;;;;;;24.80;13.37;100063.56;5015236;28;20038;-80
2022/04/25 02:50:02;;;;;;;0.20;0.20;;;;;;;24.81;13.63;100061.63;5015255;28;20381;-80
2022/04/25 02:52:27;;;;;;;0.30;0.30;;;;;;;24.84;13.22;100052.84;5015013;28;20034;-80
2022/04/25 02:54:53;;;;;;;0.30;0.30;;;;;;;24.80;13.55;100049.88;5016290;28;20037;-80
2022/04/25 02:57:19;;;;;;;0.45;0.45;;;;;;;24.83;13.48;100046.53;5016371;28;20157;-80
2022/04/25 02:59:44;;;;;;;0.32;0.30;;;;;;;24.82;13.30;100041.38;5015959;28;20032;-80
2022/04/25 03:02:10;;;;;;;0.55;0.55;;;;;;;24.86;13.44;100045.97;5016197;28;20026;-80
2022/04/25 03:04:36;;;;;;;0.35;0.35;;;;;;;24.88;13.19;100041.03;5032392;28;20052;-80
2022/04/25 03:07:02;;;;;;;0.45;0.45;;;;;;;24.91;13.28;100045.09;5035917;28;20449;-80
2022/04/25 03:09:27;;;;;;;0.30;0.30;;;;;;;24.96;13.41;100041.47;5035702;28;20123;-80
2022/04/25 03:11:53;;;;;;;0.35;0.35;;;;;;;24.96;13.60;100033.28;5035829;28;20099;-80
2022/04/25 03:14:18;;;;;;;0.20;0.20;;;;;;;25.03;13.34;100031.03;5035416;28;20100;-80
2022/04/25 03:16:44;;;;;;;0.40;0.40;;;;;;;25.05;13.29;100028.81;5035771;28;20030;-80
2022/04/25 03:19:09;;;;;;;0.30;0.30;;;;;;;25.06;13.57;100027.69;5035417;28;20100;-80
2022/04/25 03:21:35;;;;;;;0.40;0.40;;;;;;;25.09;13.42;100036.13;5035440;28;20033;-80
2022/04/25 03:24:02;;;;;;;0.32;0.30;;;;;;;25.15;13.46;100036.03;5035756;28;20029;-80
2022/04/25 03:26:29;;;;;;;0.30;0.30;;;;;;;25.17;13.28;100033.84;5034260;28;20049;-80
2022/04/25 03:28:54;;;;;;;0.30;0.30;;;;;;;25.22;13.44;100020.13;5036316;28;20354;-80
2022/04/25 03:31:19;;;;;;;0.40;0.40;;;;;;;25.24;13.25;100018.69;5051872;28;20037;-80
2022/04/25 03:33:45;;;;;;;0.32;0.30;;;;;;;25.26;13.33;100027.44;5036457;28;20036;-79
2022/04/25 03:36:10;;;;;;;0.32;0.32;;;;;;;25.33;13.23;100027.06;5035563;28;20091;-79
2022/04/25 03:38:36;;;;;;;0.30;0.30;;;;;;;25.34;13.66;100027.91;5034050;28;20032;-80
2022/04/25 03:41:01;;;;;;;0.40;0.40;;;;;;;25.37;13.41;100021.84;5035322;28;20037;-80
2022/04/25 03:43:27;;;;;;;0.30;0.30;;;;;;;25.39;13.26;100019.59;5050396;28;20456;-79
2022/04/25 03:45:52;;;;;;;0.30;0.30;;;;;;;25.41;13.27;100017.41;5035334;28;20361;-80
2022/04/25 03:48:18;;;;;;;0.20;0.20;;;;;;;25.43;13.12;100012.44;5035057;28;20021;-80
2022/04/25 03:50:43;;;;;;;1.45;1.00;;;;;;;25.44;13.26;100014.06;5033919;28;20038;-80
2022/04/25 03:53:10;;;;;;;2.72;1.38;;;;;;;25.49;13.23;100011.25;5035751;28;20025;-80
2022/04/25 03:58:21;;;;;;;1.23;0.80;;;;;;;25.53;13.20;100006.81;5033644;28;20163;-79
2022/04/25 04:00:46;;;;;;;5.65;2.85;;;;;;;25.53;13.38;99995.88;5050289;28;20056;-79
2022/04/25 04:03:14;;;;;;;4.93;2.10;;;;;;;25.55;13.21;100006.53;5031187;28;20460;-79
2022/04/25 04:05:42;;;;;;;10.30;4.65;;;;;;;25.57;13.16;99998.84;5014679;28;20427;-81
2022/04/25 04:08:08;;;;;;;7.90;3.28;;;;;;;25.56;13.25;100000.78;5014973;28;20034;-81
2022/04/25 04:10:33;;;;;;;2.63;1.40;;;;;;;25.58;13.11;100000.47;5015345;28;20037;-80
2022/04/25 04:13:00;;;;;;;2.47;0.70;;;;;;;25.62;13.15;100001.50;5015388;28;20044;-81
2022/04/25 04:15:25;;;;;;;1.48;0.65;;;;;;;25.65;13.01;99995.44;5014776;28;20025;-81
2022/04/25 04:17:51;;;;;;;1.48;0.40;;;;;;;25.65;12.97;100003.66;5014747;28;20044;-81
2022/04/25 04:20:16;;;;;;;0.50;0.47;;;;;;;25.63;13.18;100003.94;5015089;28;20022;-79
2022/04/25 04:22:42;;;;;;;0.52;0.50;;;;;;;25.66;13.01;99999.78;5014868;28;20046;-81
2022/04/25 04:25:09;;;;;;;0.50;0.50;;;;;;;25.70;13.00;99997.25;5013892;28;20022;-80
2022/04/25 04:27:35;;;;;;;0.68;0.55;;;;;;;25.70;13.27;100000.81;5014733;28;20026;-81
2022/04/25 04:30:02;;;;;;;0.47;0.47;;;;;;;25.70;12.98;99994.53;5014183;28;20037;-80
2022/04/25 04:32:29;;;;;;;0.38;0.38;;;;;;;25.71;12.89;99998.91;5014873;28;20061;-81
2022/04/25 04:34:55;;;;;;;0.40;0.40;;;;;;;25.72;13.06;99997.78;5014287;28;20468;-81
2022/04/25 04:37:21;;;;;;;0.40;0.40;;;;;;;25.75;13.34;99991.69;5015516;28;20114;-80
2022/04/25 04:39:46;;;;;;;0.73;0.60;;;;;;;25.78;13.03;100002.06;5014626;28;20341;-82
2022/04/25 04:42:12;;;;;;;0.30;0.30;;;;;;;25.79;13.33;99993.56;5014451;28;20476;-82
2022/04/25 04:44:37;;;;;;;0.40;0.40;;;;;;;25.80;13.50;99991.63;5014299;28;20065;-82
2022/04/25 04:47:03;;;;;;;0.43;0.43;;;;;;;25.80;13.53;99986.97;5014686;28;20373;-81
2022/04/25 04:49:28;;;;;;;0.40;0.40;;;;;;;25.83;13.47;99980.06;5015202;28;20026;-81
2022/04/25 04:51:54;;;;;;;0.47;0.47;;;;;;;25.84;13.42;99979.78;5014945;28;20025;-80
2022/04/25 04:54:20;;;;;;;0.57;0.32;;;;;;;25.84;13.54;99976.25;5014760;28;20033;-81
2022/04/25 04:56:45;;;;;;;0.35;0.35;;;;;;;25.87;13.40;99975.63;5013953;28;20492;-81
2022/04/25 04:59:11;;;;;;;0.40;0.40;;;;;;;25.87;13.47;99975.63;5015027;28;20037;-80
2022/04/25 05:01:36;;;;;;;0.40;0.40;;;;;;;25.89;13.62;99970.69;5014621;28;20030;-81
2022/04/25 05:04:02;;;;;;;0.50;0.40;;;;;;;25.89;13.67;99973.41;5023347;28;20033;-80
2022/04/25 05:06:28;;;;;;;0.63;0.50;;;;;;;25.88;13.61;99971.78;5033867;28;20091;-79
2022/04/25 05:08:54;;;;;;;0.40;0.40;;;;;;;25.95;13.70;99965.94;5033723;28;20120;-82
2022/04/25 05:11:19;;;;;;;6.63;3.05;;;;;;;25.92;13.35;99964.56;5034734;28;20017;-78
2022/04/25 05:13:45;;;;;;;5.20;2.28;;;;;;;25.96;13.23;99968.38;5033797;28;20079;-79
2022/04/25 05:16:10;;;;;;;1.42;0.90;;;;;;;25.95;13.36;99964.00;5034100;28;20021;-79
2022/04/25 05:18:36;;;;;;;0.98;0.57;;;;;;;25.97;13.47;99959.03;5033932;28;20056;-80
2022/04/25 05:21:01;;;;;;;0.80;0.57;;;;;;;25.96;13.28;99951.16;5034570;28;20029;-78
2022/04/25 05:23:27;;;;;;;0.50;0.50;;;;;;;25.96;13.41;99960.19;5051311;28;20476;-78
2022/04/25 05:25:53;;;;;;;1.85;0.50;;;;;;;26.03;13.18;99957.84;5037593;28;20508;-78
2022/04/25 05:28:19;;;;;;;0.60;0.50;;;;;;;25.97;13.16;99950.84;5038321;28;20108;-78
2022/04/25 05:30:44;;;;;;;0.85;0.57;;;;;;;26.01;13.09;99949.13;5038224;28;20032;-77
2022/04/25 05:33:10;;;;;;;0.80;0.65;;;;;;;26.01;13.17;99951.88;5037924;28;20025;-78
2022/04/25 05:35:35;;;;;;;2.47;0.68;;;;;;;25.96;13.30;99946.47;5041004;28;20037;-76
2022/04/25 05:38:02;;;;;;;0.95;0.57;;;;;;;26.04;13.10;99948.53;5037966;28;20029;-77
2022/04/25 05:40:27;;;;;;;0.88;0.50;;;;;;;26.01;13.15;99949.13;5037873;28;20028;-80
2022/04/25 05:42:54;;;;;;;0.82;0.55;;;;;;;26.05;13.16;99941.94;5038120;28;20026;-81
2022/04/25 05:45:21;;;;;;;0.60;0.57;;;;;;;26.08;13.26;99940.53;5036320;28;20495;-77
2022/04/25 05:47:46;;;;;;;1.15;0.50;;;;;;;26.03;13.27;99935.94;5038098;28;20052;-78
2022/04/25 05:52:56;;;;;;;0.52;0.52;;;;;;;26.10;13.21;99940.22;5038582;28;20048;-78
2022/04/25 05:55:22;;;;;;;1.00;0.70;;;;;;;26.05;13.31;99936.44;5039308;28;20026;-80
2022/04/25 05:57:47;;;;;;;2.67;1.02;;;;;;;26.04;13.40;99926.63;5037780;28;20076;-78
2022/04/25 06:00:14;;;;;;;12.55;5.18;;;;;;;26.03;13.30;99932.41;5040482;28;20025;-78
2022/04/25 06:02:39;;;;;;;16.08;7.22;;;;;;;26.10;13.16;99929.28;5037597;28;20025;-77
2022/04/25 06:05:06;;;;;;;18.67;8.93;;;;;;;26.12;13.39;99932.50;5021255;28;20098;-79
2022/04/25 06:07:34;;;;;;;28.02;12.13;;;;;;;26.04;13.54;99932.09;5017650;28;20030;-78
2022/04/25 06:10:00;;;;;;;23.15;10.25;;;;;;;26.15;13.58;99929.19;5018177;28;20032;-79
2022/04/25 06:12:29;;;;;;;12.40;5.15;;;;;;;26.14;13.55;99924.81;5017902;28;20094;-79
2022/04/25 06:14:55;;;;;;;7.53;4.00;;;;;;;26.16;13.46;99917.09;5016832;28;20468;-78
2022/04/25 06:17:21;;;;;;;6.70;3.00;;;;;;;26.25;13.39;99915.28;5016787;28;20072;-78
2022/04/25 06:19:49;;;;;;;4.90;2.75;;;;;;;26.22;13.21;99911.22;5017717;28;20443;-79
2022/04/25 06:22:18;;;;;;;5.80;2.35;;;;;;;26.12;13.42;99907.88;5017986;28;20030;-79
2022/04/25 06:24:43;;;;;;;3.58;1.65;;;;;;;26.22;13.26;99913.16;5018002;28;20029;-78
2022/04/25 06:27:09;;;;;;;2.60;1.30;;;;;;;26.33;13.44;99911.00;5017582;28;20034;-78
2022/04/25 06:29:35;;;;;;;2.95;1.33;;;;;;;26.39;13.53;99910.59;5019536;28;20045;-77
2022/04/25 06:32:03;;;;;;;1.38;0.75;;;;;;;26.32;13.46;99904.72;5019338;28;20149;-77
2022/04/25 06:34:28;;;;;;;1.85;0.70;;;;;;;26.46;13.36;99899.25;5017400;28;20105;-78
2022/04/25 06:36:54;;;;;;;1.90;0.70;;;;;;;26.55;13.28;99891.09;5017421;28;20025;-79
2022/04/25 06:39:19;;;;;;;3.25;0.80;;;;;;;26.50;13.60;99893.97;5018012;28;20026;-78
2022/04/25 06:41:46;;;;;;;2.30;0.70;;;;;;;26.58;13.57;99891.31;5018228;28;20030;-80
2022/04/25 06:44:12;;;;;;;0.80;0.57;;;;;;;26.58;13.66;99885.03;5017067;28;20108;-79
2022/04/25 06:46:37;;;;;;;2.15;0.63;;;;;;;26.54;13.59;99894.97;5017289;28;20033;-79
2022/04/25 06:49:23;;;;;;;0.80;0.80;;;;;;;26.49;13.61;99889.59;5017341;28;20026;-81
2022/04/25 06:51:58;;;;;;;0.60;0.60;;;;;;;26.58;13.34;99891.31;5017907;28;20037;-80
2022/04/25 06:54:24;;;;;;;0.73;0.50;;;;;;;26.56;13.50;99881.75;5016978;28;20117;-79
2022/04/25 06:56:49;;;;;;;1.00;0.50;;;;;;;26.56;13.20;99882.59;5017415;28;20049;-79
2022/04/25 06:59:15;;;;;;;0.45;0.32;;;;;;;26.59;13.37;99878.41;5016412;28;20053;-78
2022/04/25 07:01:42;;;;;;;0.52;0.40;;;;;;;26.55;13.86;99882.88;5018024;28;20133;-80
2022/04/25 07:04:08;;;;;;;0.65;0.40;;;;;;;26.58;13.42;99876.81;5022791;28;20134;-80
2022/04/25 07:06:34;;;;;;;2.22;0.57;;;;;;;26.63;13.45;99875.88;5037588;28;20032;-81
2022/04/25 07:08:59;;;;;;;1.23;0.52;;;;;;;26.61;13.28;99878.91;5037110;28;20049;-80
2022/04/25 07:11:25;;;;;;;0.80;0.52;;;;;;;26.57;13.27;99873.22;5037529;28;20049;-81
2022/04/25 07:13:51;;;;;;;1.20;0.40;;;;;;;26.67;13.45;99869.50;5036310;28;20440;-80
2022/04/25 07:16:16;;;;;;;0.93;0.50;;;;;;;26.54;13.51;99862.06;5036023;28;20033;-78
2022/04/25 07:18:42;;;;;;;1.15;0.50;;;;;;;26.57;13.42;99864.22;5036306;28;20097;-78
2022/04/25 07:29:22;;;;;;;27.67;10.30;;;;;;;26.77;13.70;99858.31;5036390;28;20059;-79
2022/04/25 07:31:50;;;;;;;24.42;9.60;;;;;;;26.79;13.69;99858.00;5038089;28;20543;-80
2022/04/25 07:34:19;;;;;;;18.88;7.35;;;;;;;26.77;13.75;99855.56;5037793;28;20037;-80
2022/04/25 07:36:51;;;;;;;5.88;2.78;;;;;;;26.83;13.68;99858.19;5035985;28;20481;-79
2022/04/25 07:39:16;;;;;;;6.55;2.75;;;;;;;26.72;13.89;99849.41;5038828;28;20022;-79
2022/04/25 07:41:44;;;;;;;3.78;2.40;;;;;;;26.78;13.82;99846.19;5055522;28;20045;-79
2022/04/25 07:44:10;;;;;;;7.32;3.00;;;;;;;26.87;13.75;99850.97;5036356;28;20099;-79
2022/04/25 07:46:36;;;;;;;5.38;2.55;;;;;;;26.88;13.68;99849.84;5041324;28;20037;-80
2022/04/25 07:49:02;;;;;;;5.18;2.53;;;;;;;26.88;13.94;99858.06;5036001;28;20033;-78
2022/04/25 07:51:27;;;;;;;2.88;1.45;;;;;;;26.86;13.86;99855.63;5034891;28;20029;-80
2022/04/25 07:53:53;;;;;;;2.25;1.23;;;;;;;26.89;13.70;99848.72;5036295;28;20384;-79
2022/04/25 07:56:18;;;;;;;3.15;1.65;;;;;;;26.89;13.86;99849.53;5037406;28;20028;-78
2022/04/25 07:58:45;;;;;;;3.13;1.10;;;;;;;26.90;13.65;99850.34;5037087;28;20021;-77
2022/04/25 08:01:10;;;;;;;2.38;1.10;;;;;;;26.85;13.59;99853.19;5036020;28;20028;-78
2022/04/25 08:03:36;;;;;;;2.83;1.45;;;;;;;26.93;13.45;99841.50;5035178;28;20026;-78
2022/04/25 08:06:01;;;;;;;3.72;1.60;;;;;;;26.95;13.58;99842.00;5016554;28;20037;-77
2022/04/25 08:08:27;;;;;;;5.38;2.25;;;;;;;26.88;13.66;99836.94;5016367;28;20056;-78
2022/04/25 08:10:52;;;;;;;5.03;1.92;;;;;;;26.93;13.48;99847.78;5015985;28;20018;-78
2022/04/25 08:18:46;;;;;;;9.65;3.67;;;;;;;27.04;13.53;99833.84;5015117;28;20396;-77
2022/04/25 08:21:11;;;;;;;2.88;1.77;;;;;;;27.04;13.50;99831.09;5015368;28;20067;-77
2022/04/25 08:23:37;;;;;;;4.10;1.60;;;;;;;27.00;13.51;99833.66;5015510;28;20453;-77
2022/04/25 08:26:02;;;;;;;2.22;1.00;;;;;;;26.97;13.57;99835.09;5015718;28;20026;-77
2022/04/25 08:28:27;;;;;;;1.08;0.68;;;;;;;27.05;13.43;99836.28;5014386;28;20029;-77
2022/04/25 08:30:53;;;;;;;1.85;1.08;;;;;;;27.08;13.49;99832.06;5014460;28;20029;-77
2022/04/25 08:33:21;;;;;;;1.20;0.75;;;;;;;27.01;13.41;99816.09;5014293;28;20033;-77
2022/04/25 08:35:47;;;;;;;1.00;0.70;;;;;;;27.09;13.18;99823.53;5014194;28;20527;-77
2022/04/25 08:38:12;;;;;;;1.35;0.90;;;;;;;27.07;13.23;99820.31;5013736;28;20033;-77
2022/04/25 08:40:39;;;;;;;1.73;0.70;;;;;;;27.13;13.28;99813.59;5020110;28;20365;-77
2022/04/25 08:43:05;;;;;;;1.17;0.60;;;;;;;27.17;13.22;99805.53;5017379;28;20049;-78
2022/04/25 08:45:31;;;;;;;0.88;0.43;;;;;;;27.20;13.24;99807.66;5013005;28;20018;-77
2022/04/25 08:48:00;;;;;;;0.40;0.40;;;;;;;27.22;13.22;99802.66;5014795;28;20037;-78
2022/04/25 08:50:27;;;;;;;1.52;0.50;;;;;;;27.27;13.17;99804.44;5013977;28;20121;-78
2022/04/25 08:52:52;;;;;;;0.30;0.30;;;;;;;27.34;13.12;99813.09;5014694;28;20057;-78
2022/04/25 08:55:18;;;;;;;1.95;0.47;;;;;;;27.40;13.07;99803.59;5013824;28;20141;-79
2022/04/25 08:57:44;;;;;;;0.30;0.30;;;;;;;27.35;12.95;99804.56;5013562;28;20061;-78
2022/04/25 09:00:10;;;;;;;0.40;0.32;;;;;;;27.35;13.03;99803.72;5014958;28;20029;-80
2022/04/25 09:02:38;;;;;;;0.73;0.40;;;;;;;27.34;13.10;99793.91;5014362;28;20037;-79
2022/04/25 09:05:07;;;;;;;0.38;0.38;;;;;;;27.35;12.96;99798.25;5025676;28;20045;-78
2022/04/25 09:07:35;;;;;;;0.43;0.32;;;;;;;27.29;12.97;99803.06;5033094;28;20025;-79
2022/04/25 09:10:01;;;;;;;1.90;0.50;;;;;;;26.41;13.72;99798.78;5033786;28;20030;-79
2022/04/25 09:12:26;;;;;;;0.95;0.75;;;;;;;26.11;14.01;99789.28;5034689;28;20515;-78
2022/04/25 09:14:52;;;;;;;0.50;0.50;;;;;;;26.24;13.60;99793.16;5032512;28;20026;-78
2022/04/25 09:17:17;;;;;;;1.42;0.85;;;;;;;26.42;13.57;99789.47;5033935;28;20403;-78
2022/04/25 09:19:43;;;;;;;4.10;1.60;;;;;;;26.63;13.39;99788.19;5033029;28;20079;-78
2022/04/25 09:22:09;;;;;;;4.72;2.55;;;;;;;26.90;13.02;99784.53;5033163;28;20483;-80
2022/04/25 09:24:42;;;;;;;4.57;2.10;;;;;;;27.14;13.06;99782.28;5034937;28;20033;-81
2022/04/25 09:27:08;;;;;;;4.80;2.30;;;;;;;27.22;13.11;99777.97;5034685;28;20112;-80
2022/04/25 09:29:34;;;;;;;3.53;1.83;;;;;;;27.31;12.95;99780.81;5034150;28;20417;-79
2022/04/25 09:32:00;;;;;;;1.95;1.08;;;;;;;27.35;12.82;99776.28;5034992;28;20434;-79
2022/04/25 09:37:10;;;;;;;2.22;1.00;;;;;;;27.41;12.69;99777.00;5033093;28;20090;-80
2022/04/25 09:39:36;;;;;;;1.27;0.82;;;;;;;26.53;13.22;99781.00;5035806;28;20029;-79
2022/04/25 09:42:01;;;;;;;2.45;0.68;;;;;;;26.53;13.12;99778.28;5033632;28;20034;-78
2022/04/25 09:44:30;;;;;;;1.35;0.60;;;;;;;26.61;13.17;99774.78;5049940;28;20072;-77
2022/04/25 09:46:56;;;;;;;0.60;0.57;;;;;;;27.04;13.00;99760.59;5034802;28;20064;-77
2022/04/25 09:49:21;;;;;;;3.72;2.08;;;;;;;27.34;12.95;99761.78;5035366;28;20022;-79
2022/04/25 09:52:03;;;;;;;3.58;2.08;;;;;;;27.01;13.11;99760.41;5034950;28;20029;-79
2022/04/25 09:54:28;;;;;;;15.45;7.10;;;;;;;26.67;13.34;99756.34;5035454;28;20026;-80
2022/04/25 09:56:54;;;;;;;13.35;5.13;;;;;;;26.84;13.05;99761.94;5035531;28;20021;-78
2022/04/25 09:59:21;;;;;;;7.88;3.80;;;;;;;26.90;13.11;99759.88;5034648;28;20021;-79
2022/04/25 10:02:00;;;;;;;8.40;3.80;;;;;;;27.12;12.91;99759.84;5034769;28;20025;-79
2022/04/25 10:04:33;;;;;;;6.93;2.72;;;;;;;27.23;12.95;99756.84;5044043;28;20084;-78
2022/04/25 10:07:04;;;;;;;4.65;2.03;;;;;;;27.31;12.85;99745.94;5014514;28;20138;-77
2022/04/25 10:09:31;;;;;;;3.67;1.95;;;;;;;27.34;12.91;99758.22;5015780;28;20030;-78
2022/04/25 10:12:01;;;;;;;3.33;1.70;;;;;;;27.30;12.86;99751.72;5018476;28;20036;-78
2022/04/25 10:14:27;;;;;;;6.18;1.98;;;;;;;27.24;13.15;99742.81;5018461;28;20113;-78
2022/04/25 10:16:57;;;;;;;3.38;1.35;;;;;;;27.56;12.93;99748.31;5018433;28;20026;-78
2022/04/25 10:19:26;;;;;;;2.17;1.40;;;;;;;27.80;12.96;99737.72;5017654;28;20030;-78
2022/04/25 10:21:52;;;;;;;5.05;2.53;;;;;;;27.96;12.67;99745.53;5019118;28;20105;-79
2022/04/25 10:24:18;;;;;;;6.95;3.13;;;;;;;28.01;12.83;99739.91;5019458;28;20465;-78
2022/04/25 10:26:43;;;;;;;4.40;2.70;;;;;;;28.02;12.73;99736.84;5018835;28;20029;-78
2022/04/25 10:29:11;;;;;;;4.18;2.20;;;;;;;27.98;13.21;99744.09;5019151;28;20417;-78
2022/04/25 10:31:43;;;;;;;4.55;2.00;;;;;;;27.98;13.03;99740.56;5015536;28;20445;-78
2022/04/25 10:34:09;;;;;;;3.42;2.00;;;;;;;27.97;12.74;99738.94;5014937;28;20144;-78
2022/04/25 10:36:37;;;;;;;3.50;1.50;;;;;;;27.98;12.75;99744.09;5016277;28;20022;-78
2022/04/25 10:39:27;;;;;;;2.05;1.30;;;;;;;28.00;12.65;99747.34;5017268;28;20211;-77
2022/04/25 10:44:36;;;;;;;1.35;0.90;;;;;;;27.87;12.87;99740.00;5016404;28;20065;-80
2022/04/25 10:47:05;;;;;;;1.70;0.95;;;;;;;27.82;12.76;99743.72;5016311;28;20025;-79
2022/04/25 10:49:33;;;;;;;1.40;0.80;;;;;;;27.83;12.78;99745.31;5016289;28;20030;-79
2022/04/25 10:51:59;;;;;;;1.35;0.60;;;;;;;27.82;12.82;99740.97;5016690;28;20030;-80
2022/04/25 10:54:28;;;;;;;1.05;0.70;;;;;;;27.77;12.81;99741.13;5015382;28;20509;-79
2022/04/25 10:57:09;;;;;;;1.60;0.77;;;;;;;27.82;12.86;99745.63;5016441;28;20495;-79
2022/04/25 10:59:35;;;;;;;0.95;0.73;;;;;;;27.79;12.85;99747.09;5016571;28;20029;-81
2022/04/25 11:02:00;;;;;;;3.50;1.90;;;;;;;27.87;12.74;99738.09;5016045;28;20026;-80
2022/04/25 11:04:26;;;;;;;3.03;1.50;;;;;;;27.83;12.78;99747.25;5016940;28;20357;-79
2022/04/25 11:07:19;;;;;;;2.95;1.65;;;;;;;27.91;13.00;99750.06;5036022;28;20089;-79
2022/04/25 11:09:44;;;;;;;3.58;1.80;;;;;;;27.87;12.60;99738.09;5034583;28;20037;-79
2022/04/25 11:12:15;;;;;;;4.53;1.48;;;;;;;27.74;12.67;99739.00;5034700;28;20377;-78
2022/04/25 11:14:58;;;;;;;2.75;1.20;;;;;;;27.88;12.61;99731.44;5019472;28;20072;-80
2022/04/25 11:17:24;;;;;;;2.67;1.10;;;;;;;27.84;12.65;99722.25;5035121;28;20108;-78
2022/04/25 11:19:54;;;;;;;1.27;0.90;;;;;;;27.78;12.60;99734.47;5018212;28;20084;-76
2022/04/25 11:22:35;;;;;;;1.42;0.80;;;;;;;27.78;12.85;99729.00;5033931;28;20125;-77
2022/04/25 11:25:19;;;;;;;1.55;0.80;;;;;;;27.84;12.75;99722.25;5033259;28;20439;-77
2022/04/25 11:28:04;;;;;;;1.10;0.80;;;;;;;27.85;12.80;99723.84;5035336;28;20380;-77
2022/04/25 11:30:29;;;;;;;1.95;0.90;;;;;;;27.83;12.74;99726.09;5033994;28;20407;-78
2022/04/25 11:33:01;;;;;;;0.73;0.70;;;;;;;27.82;12.63;99724.50;5033613;28;20048;-77
2022/04/25 11:35:27;;;;;;;1.40;0.70;;;;;;;27.74;12.73;99719.78;5033456;28;20060;-77
2022/04/25 11:37:55;;;;;;;1.13;0.60;;;;;;;27.83;12.59;99717.06;5033909;28;20152;-79
2022/04/25 11:40:21;;;;;;;0.65;0.60;;;;;;;27.80;12.83;99723.19;5018066;28;20049;-80
2022/04/25 11:42:46;;;;;;;0.50;0.50;;;;;;;27.64;12.99;99717.34;5034085;28;20045;-78
2022/04/25 11:45:12;;;;;;;0.70;0.60;;;;;;;27.44;13.45;99719.53;5033562;28;20482;-78
2022/04/25 11:47:37;;;;;;;1.33;0.73;;;;;;;27.65;12.96;99716.22;5034868;28;20495;-79
2022/04/25 11:50:05;;;;;;;0.93;0.30;;;;;;;27.59;13.19;99712.78;5035869;28;20030;-78
2022/04/25 11:52:30;;;;;;;0.50;0.50;;;;;;;27.39;13.07;99716.94;5035410;28;20021;-78
2022/04/25 11:54:56;;;;;;;0.68;0.50;;;;;;;27.67;12.99;99711.22;5035153;28;20379;-78
2022/04/25 11:57:22;;;;;;;0.98;0.60;;;;;;;27.81;12.63;99717.38;5035177;28;20029;-77
2022/04/25 11:59:47;;;;;;;0.40;0.40;;;;;;;27.83;12.74;99717.88;5035345;28;20021;-77